Accueil
METAR-TAF:

METAR-TAF

Aéroports :

Bahreïn, Bahreïn

Aéroport international de Bahreïn

latitude: 26-16N, longitude: 050-39E, altitude: 2 m

Observation

Le bulletin a été fait il y a 6 minutes, à 03:00 UTC
Vent 6 kt de est/sud-est
Température 35°C
Humidité 63%
Pression 1001 hPa
Visibilité 10 km ou plus
pas de nuages en-dessous de 1500 mètres et pas de cumulonimbus.

METAR: OBBI 240300Z 12006KT CAVOK 35/27 Q1001 NOSIG

Heure: 06:06 (03:06 UTC)

Prévision

Le bulletin a été fait il y a 4 heures et 6 minutes, à 23:00 UTC
Prévision valable du 24 à 00 UTC au 25 à 06 UTC
Vent 10 kt de est
Visibilité: 8000 m
Evoluant progressivement
du 24 à 21 UTC au 24 à 23 UTC
Vent 5 kt de direction variable

TAF: OBBI 232300Z 2400/2506 10010KT 8000 NSC BECMG 2421/2423 VRB05KT

Observations et prévisions météorologiques de plus de 4000 aéroports (messages METAR et TAF).

Les stations disponibles sont représentées par des disques jaunes et rouges sur la carte.

Passer la souris dessus pour voir le nom de la station.

Cliquer dessus pour voir les observations et prévisions météorologiques.

Pour changer de carte: cliquez sur les boutons verts avec une croix noire pour zoomer, sur le bouton vert avec un tiret pour effectuer un zoom arrière, ou sur les flèches vertes pour les cartes adjacentes.


METAR-TAF: